NAP weather

Naples International Airport
NĂ¡poli, Campania, Italy

Public forecast

Using degrees Celsius for public forecast. Weather courtesy of forecast.io.

Current aviation weather report (METAR) for Naples International Airport

Retrieved 2020/07/07 08:50 UTC (10 minutes ago):

LIRN 070850Z VRB05KT 9999 FEW040 29/17 Q1009 NOSIG

Aviation forecast (TAF) for Naples International Airport

Retrieved 2020/07/07 06:00 UTC (3 hours ago):

TAF LIRN 070500Z 0706/0806 VRB05KT CAVOK BECMG 0708/0710 04012KT